Terminal Aerodrome Forecast
Issued by NWS

Home | Current Version | Previous Version | Text Only | Print | Product List | Glossary On
Versions: 1 2 3 4 5 6 7 8 9 10 11 12 13
000
FTUS45 KREV 301737
TAFTRK
TAF
KTRK 301737Z 3018/3118 33014G25KT P6SM -SHSN FEW010 BKN020
     FM301900 34018G32KT P6SM FEW020 BKN035
     FM310100 36012G20KT P6SM SCT040
     FM310400 04008KT P6SM SKC=

USA.gov is the U.S. government's official web portal to all federal, state and local government web resources and services.